createdAt,value
2023-02-04T00:01:12.717Z,100218.03
2023-02-04T00:04:27.165Z,100222.34
2023-02-04T00:07:35.181Z,100202.25
2023-02-04T00:10:57.220Z,100215.28
2023-02-04T00:14:05.170Z,100212.72
2023-02-04T00:17:20.165Z,100206.59
2023-02-04T00:20:24.880Z,100211.91
2023-02-04T00:23:39.172Z,100229.59
2023-02-04T00:26:47.189Z,100209.44
2023-02-04T00:29:55.741Z,100223.47
2023-02-04T00:33:04.190Z,100217.34
2023-02-04T00:36:12.760Z,100229.69
2023-02-04T00:39:21.181Z,100215.69
2023-02-04T00:42:36.167Z,100212.03
2023-02-04T00:45:37.834Z,100209.53
2023-02-04T00:48:52.190Z,100199.87
2023-02-04T00:51:54.208Z,100200.66
2023-02-04T00:55:09.305Z,100188.31
2023-02-04T00:58:11.064Z,100156.72
2023-02-04T01:01:26.191Z,100171.63
2023-02-04T01:04:41.205Z,100170.59
2023-02-04T01:07:49.144Z,100162.53
2023-02-04T01:11:11.193Z,100166.91
2023-02-04T01:14:13.457Z,100155.66
2023-02-04T01:17:28.201Z,100160.84
2023-02-04T01:20:36.192Z,100155.50
2023-02-04T01:23:51.206Z,100161.63
2023-02-04T01:26:59.246Z,100162.50
2023-02-04T01:30:08.608Z,100162.53
2023-02-04T01:33:17.476Z,100168.59
2023-02-04T01:36:25.869Z,100162.47
2023-02-04T01:39:40.161Z,100162.31
2023-02-04T01:42:55.183Z,100162.44
2023-02-04T01:45:57.220Z,100153.66
2023-02-04T01:49:13.253Z,100141.31
2023-02-04T01:52:15.050Z,100149.25
2023-02-04T01:55:34.272Z,100159.81
2023-02-04T01:58:40.847Z,100169.44
2023-02-04T02:01:58.253Z,100165.06
2023-02-04T02:05:16.219Z,100169.37
2023-02-04T02:08:18.779Z,100172.09
2023-02-04T02:11:34.190Z,100153.81
2023-02-04T02:14:42.168Z,100174.72
2023-02-04T02:17:52.173Z,100175.59
2023-02-04T02:21:01.185Z,100174.75
2023-02-04T02:24:31.204Z,100186.28
2023-02-04T02:27:32.828Z,100191.44
2023-02-04T02:30:49.204Z,100185.34
2023-02-04T02:33:50.997Z,100190.72
2023-02-04T02:37:08.169Z,100188.00
2023-02-04T02:40:23.208Z,100194.16
2023-02-04T02:43:38.174Z,100195.94
2023-02-04T02:46:47.195Z,100174.81
2023-02-04T02:49:55.939Z,100166.91
2023-02-04T02:53:05.247Z,100173.09
2023-02-04T02:56:13.857Z,100159.88
2023-02-04T02:59:23.212Z,100142.41
2023-02-04T03:02:31.870Z,100141.53
2023-02-04T03:05:50.187Z,100124.66
2023-02-04T03:09:05.193Z,100133.47
2023-02-04T03:12:13.625Z,100151.09
2023-02-04T03:15:28.208Z,100139.63
2023-02-04T03:18:31.618Z,100148.41
2023-02-04T03:21:48.245Z,100159.00
2023-02-04T03:24:49.964Z,100142.28
2023-02-04T03:28:05.223Z,100148.47
2023-02-04T03:31:20.316Z,100145.81
2023-02-04T03:34:22.938Z,100122.03
2023-02-04T03:37:37.183Z,100122.94
2023-02-04T03:40:45.228Z,100127.38
2023-02-04T03:43:53.731Z,100126.56
2023-02-04T03:47:02.250Z,100131.91
2023-02-04T03:50:17.228Z,100121.38
2023-02-04T03:53:32.219Z,100124.03
2023-02-04T03:56:33.897Z,100130.28
2023-02-04T03:59:49.278Z,100122.34
2023-02-04T04:02:57.268Z,100126.78
2023-02-04T04:06:05.941Z,100117.16
2023-02-04T04:09:14.257Z,100107.50
2023-02-04T04:12:29.498Z,100119.75
2023-02-04T04:15:39.243Z,100120.62
2023-02-04T04:18:47.831Z,100120.53
2023-02-04T04:21:56.212Z,100110.88
2023-02-04T04:25:12.218Z,100117.00
2023-02-04T04:28:27.255Z,100117.91
2023-02-04T04:31:42.304Z,100117.06
2023-02-04T04:34:44.026Z,100115.22
2023-02-04T04:37:58.485Z,100113.47
2023-02-04T04:41:06.998Z,100109.03
2023-02-04T04:44:15.229Z,100105.56
2023-02-04T04:47:30.225Z,100096.88
2023-02-04T04:50:32.367Z,100107.28
2023-02-04T04:53:47.193Z,100115.94
2023-02-04T04:56:48.928Z,100115.91
2023-02-04T05:00:04.266Z,100106.19
2023-02-04T05:03:12.759Z,100103.56
2023-02-04T05:06:20.973Z,100100.88
2023-02-04T05:09:29.357Z,100102.69
2023-02-04T05:12:37.862Z,100065.16
2023-02-04T05:15:52.258Z,100091.25
2023-02-04T05:18:53.912Z,100035.19
2023-02-04T05:22:08.228Z,100062.97
2023-02-04T05:25:17.282Z,100064.81
2023-02-04T05:28:26.284Z,100067.28
2023-02-04T05:31:35.274Z,100061.31
2023-02-04T05:34:50.223Z,100030.56
2023-02-04T05:37:58.202Z,100039.38
2023-02-04T05:41:13.201Z,100024.56
2023-02-04T05:44:15.146Z,100021.13
2023-02-04T05:47:30.181Z,100007.13
2023-02-04T05:50:38.257Z,100022.19
2023-02-04T05:53:46.738Z,100056.44
2023-02-04T05:57:01.207Z,100037.41
2023-02-04T06:00:03.771Z,100064.47
2023-02-04T06:03:18.273Z,100071.66
2023-02-04T06:06:26.730Z,100073.53
2023-02-04T06:09:35.281Z,100112.22
2023-02-04T06:12:50.521Z,100115.78
2023-02-04T06:15:58.261Z,100132.50
2023-02-04T06:19:13.294Z,100135.25
2023-02-04T06:22:15.001Z,100145.78
2023-02-04T06:25:33.315Z,100127.63
2023-02-04T06:28:35.118Z,100162.56
2023-02-04T06:31:50.314Z,100185.47
2023-02-04T06:34:52.054Z,100179.41
2023-02-04T06:38:06.278Z,100199.59
2023-02-04T06:41:08.066Z,100206.63
2023-02-04T06:44:23.263Z,100211.97
2023-02-04T06:47:38.260Z,100220.72
2023-02-04T06:50:46.809Z,100231.28
2023-02-04T06:54:01.268Z,100230.41
2023-02-04T06:57:16.236Z,100229.53
2023-02-04T07:00:18.256Z,100228.66
2023-02-04T07:03:33.221Z,100205.00
2023-02-04T07:06:41.841Z,100234.78
2023-02-04T07:09:56.226Z,100204.97
2023-02-04T07:13:04.469Z,100232.19
2023-02-04T07:16:19.255Z,100247.97
2023-02-04T07:19:27.297Z,100266.41
2023-02-04T07:22:42.254Z,100265.59
2023-02-04T07:25:50.293Z,100277.87
2023-02-04T07:28:58.836Z,100280.50
2023-02-04T07:32:07.353Z,100284.03
2023-02-04T07:35:22.221Z,100311.28
2023-02-04T07:38:28.625Z,100296.41
2023-02-04T07:41:43.221Z,100314.87
2023-02-04T07:44:51.801Z,100315.75
2023-02-04T07:51:27.783Z,100347.28
2023-02-04T07:54:42.222Z,100316.53
2023-02-04T07:57:50.209Z,100329.66
2023-02-04T08:00:58.905Z,100331.34
2023-02-04T08:04:07.506Z,100324.34
2023-02-04T08:07:39.737Z,100311.16
2023-02-04T08:10:54.275Z,100333.94
2023-02-04T08:14:03.242Z,100339.16
2023-02-04T08:17:18.217Z,100360.13
2023-02-04T08:20:34.495Z,100355.69
2023-02-04T08:23:36.307Z,100368.97
2023-02-04T08:26:51.889Z,100381.25
2023-02-04T08:30:00.313Z,100403.97
2023-02-04T08:33:08.848Z,100398.75
2023-02-04T08:36:19.407Z,100411.06
2023-02-04T08:39:27.836Z,100436.63
2023-02-04T08:42:36.252Z,100417.25
2023-02-04T08:45:44.779Z,100439.12
2023-02-04T08:48:53.208Z,100440.97
2023-02-04T08:52:08.240Z,100444.56
2023-02-04T08:55:10.452Z,100443.69
2023-02-04T08:58:28.245Z,100438.47
2023-02-04T09:01:36.282Z,100446.34
2023-02-04T09:04:44.981Z,100474.41
2023-02-04T09:07:59.278Z,100476.97
2023-02-04T09:11:14.681Z,100482.25
2023-02-04T09:14:29.354Z,100483.12
2023-02-04T09:17:31.045Z,100497.97
2023-02-04T09:20:45.261Z,100513.81
2023-02-04T09:24:00.607Z,100535.72
2023-02-04T09:27:02.480Z,100547.12
2023-02-04T09:30:18.256Z,100548.87
2023-02-04T09:33:20.413Z,100592.75
2023-02-04T09:36:35.281Z,100614.72
2023-02-04T09:39:43.310Z,100627.88
2023-02-04T09:42:59.297Z,100634.84
2023-02-04T09:46:08.419Z,100669.16
2023-02-04T09:49:17.289Z,100677.94
2023-02-04T09:52:26.269Z,100668.28
2023-02-04T09:55:45.284Z,100658.63
2023-02-04T09:58:47.277Z,100667.41
2023-02-04T10:02:07.269Z,100713.94
2023-02-04T10:05:15.082Z,100704.28
2023-02-04T10:08:35.295Z,100706.03
2023-02-04T10:11:47.638Z,100716.56
2023-02-04T10:15:02.267Z,100725.34
2023-02-04T10:18:22.285Z,100734.12
2023-02-04T10:21:28.305Z,100742.03
2023-02-04T10:24:43.290Z,100750.81
2023-02-04T10:27:58.164Z,100767.53
2023-02-04T10:31:33.477Z,100769.28
2023-02-04T10:34:45.322Z,100789.50
2023-02-04T10:38:06.269Z,100800.91
2023-02-04T10:41:20.297Z,100796.53
2023-02-04T10:44:32.613Z,100796.53
2023-02-04T10:47:41.357Z,100794.75
2023-02-04T10:50:56.286Z,100819.34
2023-02-04T10:53:58.272Z,100843.91
2023-02-04T10:57:24.271Z,100869.47
2023-02-04T11:00:33.114Z,100857.19
2023-02-04T11:03:41.273Z,100879.12
2023-02-04T11:06:50.922Z,100894.94
2023-02-04T11:09:59.296Z,100905.50
2023-02-04T11:13:39.820Z,100920.47
2023-02-04T11:16:54.332Z,100913.38
2023-02-04T11:20:23.397Z,100942.34
2023-02-04T11:23:34.584Z,100946.72
2023-02-04T11:26:51.764Z,100959.84
2023-02-04T11:30:05.581Z,100966.00
2023-02-04T11:33:31.359Z,100972.19
2023-02-04T11:37:09.674Z,100985.34
2023-02-04T11:40:39.301Z,100993.16
2023-02-04T11:43:58.248Z,100989.72
2023-02-04T11:47:00.780Z,101004.69
2023-02-04T11:50:30.419Z,101018.69
2023-02-04T11:53:33.983Z,101017.75
2023-02-04T11:56:48.271Z,101020.34
2023-02-04T11:59:59.684Z,101044.09
2023-02-04T12:03:11.254Z,101021.31
2023-02-04T12:06:43.284Z,101045.06
2023-02-04T12:09:48.330Z,101052.97
2023-02-04T12:13:20.313Z,101029.25
2023-02-04T12:16:22.544Z,101075.88
2023-02-04T12:19:38.621Z,101075.88
2023-02-04T12:22:47.394Z,101103.09
2023-02-04T12:25:56.557Z,101097.87
2023-02-04T12:29:05.277Z,101096.12
2023-02-04T12:32:13.889Z,101123.41
2023-02-04T12:35:22.294Z,101117.16
2023-02-04T12:38:30.848Z,101118.03
2023-02-04T12:41:41.343Z,101116.41
2023-02-04T12:44:56.303Z,101122.44
2023-02-04T12:47:58.091Z,101142.81
2023-02-04T12:51:12.459Z,101153.34
2023-02-04T12:54:14.225Z,101119.00
2023-02-04T12:57:29.274Z,101162.81
2023-02-04T13:00:31.704Z,101164.66
2023-02-04T13:03:46.268Z,101175.00
2023-02-04T13:07:03.555Z,101195.22
2023-02-04T13:10:25.300Z,101174.91
2023-02-04T13:13:40.316Z,101215.25
2023-02-04T13:16:48.953Z,101207.31
2023-02-04T13:19:57.244Z,101228.41
2023-02-04T13:23:12.389Z,101222.31
2023-02-04T13:26:14.075Z,101247.72
2023-02-04T13:29:28.289Z,101258.09
2023-02-04T13:32:30.417Z,101254.47
2023-02-04T13:35:45.319Z,101269.41
2023-02-04T13:38:47.053Z,101270.09
2023-02-04T13:42:02.541Z,101268.31
2023-02-04T13:45:13.329Z,101273.66
2023-02-04T13:48:28.280Z,101277.13
2023-02-04T13:51:36.346Z,101279.62
2023-02-04T13:54:45.710Z,101298.88
2023-02-04T13:57:54.336Z,101288.28
2023-02-04T14:01:02.940Z,101296.91
2023-02-04T14:04:14.293Z,101311.09
2023-02-04T14:07:29.276Z,101328.50
2023-02-04T14:10:31.787Z,101329.34
2023-02-04T14:13:53.275Z,101335.16
2023-02-04T14:17:01.335Z,101354.47
2023-02-04T14:20:17.316Z,101354.38
2023-02-04T14:23:25.384Z,101385.84
2023-02-04T14:26:33.873Z,101393.69
2023-02-04T14:29:45.367Z,101392.63
2023-02-04T14:33:01.286Z,101409.13
2023-02-04T14:36:03.117Z,101433.69
2023-02-04T14:39:17.311Z,101439.59
2023-02-04T14:42:25.885Z,101414.75
2023-02-04T14:45:40.375Z,101448.09
2023-02-04T14:48:42.041Z,101439.34
2023-02-04T14:51:56.318Z,101450.56
2023-02-04T14:54:58.072Z,101463.63
2023-02-04T14:58:15.336Z,101448.53
2023-02-04T15:01:17.249Z,101465.75
2023-02-04T15:04:32.365Z,101446.47
2023-02-04T15:07:40.308Z,101483.88
2023-02-04T15:11:02.313Z,101474.13
2023-02-04T15:14:17.300Z,101484.59
2023-02-04T15:17:33.320Z,101488.84
2023-02-04T15:20:35.452Z,101489.53
2023-02-04T15:23:51.302Z,101506.91
2023-02-04T15:26:53.141Z,101523.56
2023-02-04T15:30:07.406Z,101513.00
2023-02-04T15:33:09.267Z,101526.16
2023-02-04T15:36:24.349Z,101535.56
2023-02-04T15:39:32.305Z,101526.72
2023-02-04T15:42:47.444Z,101550.19
2023-02-04T15:45:55.318Z,101556.91
2023-02-04T15:49:10.335Z,101560.25
2023-02-04T15:52:26.051Z,101576.16
2023-02-04T15:55:28.516Z,101597.09
2023-02-04T15:58:43.365Z,101598.84
2023-02-04T16:01:51.378Z,101608.28
2023-02-04T16:04:59.982Z,101613.28
2023-02-04T16:08:09.334Z,101624.41
2023-02-04T16:11:31.267Z,101640.81
2023-02-04T16:14:46.325Z,101657.41
2023-02-04T16:18:01.357Z,101675.59
2023-02-04T16:21:03.231Z,101677.00
2023-02-04T16:24:18.353Z,101681.41
2023-02-04T16:27:20.177Z,101684.03
2023-02-04T16:30:35.347Z,101669.88
2023-02-04T16:33:45.345Z,101680.13
2023-02-04T16:36:54.146Z,101687.09
2023-02-04T16:40:03.344Z,101677.41
2023-02-04T16:43:38.372Z,101679.81
2023-02-04T16:50:38.334Z,101675.47
2023-02-04T16:53:46.982Z,101670.22
2023-02-04T16:57:01.339Z,101667.37
2023-02-04T17:00:03.872Z,101678.66
2023-02-04T17:03:19.329Z,101667.91
2023-02-04T17:06:27.318Z,101683.03
2023-02-04T17:09:42.392Z,101695.88
2023-02-04T17:12:57.311Z,101688.69
2023-02-04T17:16:06.039Z,101700.12
2023-02-04T17:19:14.380Z,101702.50
2023-02-04T17:22:22.929Z,101709.47
2023-02-04T17:25:31.692Z,101669.50
2023-02-04T17:28:46.358Z,101708.25
2023-02-04T17:31:48.422Z,101717.84
2023-02-04T17:35:18.305Z,101712.69
2023-02-04T17:38:28.177Z,101727.22
2023-02-04T17:41:43.300Z,101728.87
2023-02-04T17:44:45.026Z,101689.69
2023-02-04T17:47:59.364Z,101756.13
2023-02-04T17:51:15.375Z,101717.63
2023-02-04T17:54:17.224Z,101768.16
2023-02-04T17:57:33.353Z,101784.59
2023-02-04T18:00:35.222Z,101791.72
2023-02-04T18:03:51.365Z,101788.84
2023-02-04T18:06:53.662Z,101762.59
2023-02-04T18:10:24.341Z,101826.28
2023-02-04T18:13:47.356Z,101831.66
2023-02-04T18:16:55.339Z,101840.09
2023-02-04T18:20:23.386Z,101839.91
2023-02-04T18:23:43.276Z,101850.25
2023-02-04T18:27:24.351Z,101854.78
2023-02-04T18:30:39.468Z,101866.81
2023-02-04T18:33:48.338Z,101848.84
2023-02-04T18:37:03.342Z,101862.38
2023-02-04T18:40:33.619Z,101876.41
2023-02-04T18:43:48.408Z,101861.19
2023-02-04T18:46:50.116Z,101859.53
2023-02-04T18:50:07.354Z,101877.03
2023-02-04T18:53:23.156Z,101858.28
2023-02-04T18:56:43.362Z,101880.47
2023-02-04T18:59:52.379Z,101877.84
2023-02-04T19:03:26.371Z,101883.81
2023-02-04T19:06:42.294Z,101897.84
2023-02-04T19:09:58.381Z,101891.59
2023-02-04T19:13:34.330Z,101898.50
2023-02-04T19:16:37.085Z,101901.22
2023-02-04T19:20:05.342Z,101901.97
2023-02-04T19:23:18.540Z,101895.09
2023-02-04T19:26:40.325Z,101892.59
2023-02-04T19:29:48.996Z,101887.25
2023-02-04T19:33:06.366Z,101870.41
2023-02-04T19:39:58.363Z,101886.16
2023-02-04T19:43:23.333Z,101905.25
2023-02-04T19:46:34.401Z,101904.28
2023-02-04T19:49:43.379Z,101891.59
2023-02-04T19:53:09.372Z,101913.69
2023-02-04T19:56:32.961Z,101927.72
2023-02-04T19:59:47.401Z,101927.59
2023-02-04T20:02:57.562Z,101914.41
2023-02-04T20:06:14.368Z,101925.72
2023-02-04T20:09:30.635Z,101859.28
2023-02-04T20:12:33.319Z,101895.03
2023-02-04T20:15:48.378Z,101928.66
2023-02-04T20:18:50.957Z,101926.78
2023-02-04T20:22:35.338Z,101927.75
2023-02-04T20:25:54.314Z,101921.56
2023-02-04T20:29:18.919Z,101914.94
2023-02-04T20:32:30.330Z,101934.63
2023-02-04T20:36:08.987Z,101935.34
2023-02-04T20:39:46.381Z,101885.94
2023-02-04T20:43:08.349Z,101898.28
2023-02-04T20:46:20.280Z,101944.41
2023-02-04T20:49:35.408Z,101943.81
2023-02-04T20:53:08.350Z,101942.69
2023-02-04T20:56:35.398Z,101936.13
2023-02-04T20:59:44.334Z,101940.72
2023-02-04T21:02:53.266Z,101944.22
2023-02-04T21:06:05.362Z,101930.84
2023-02-04T21:09:33.341Z,101950.53
2023-02-04T21:12:41.753Z,101940.44
2023-02-04T21:15:56.353Z,101935.81
2023-02-04T21:19:12.330Z,101946.97
2023-02-04T21:22:20.521Z,101950.47
2023-02-04T21:25:36.407Z,101945.06
2023-02-04T21:28:38.707Z,101949.66
2023-02-04T21:31:53.399Z,101940.97
2023-02-04T21:35:01.942Z,101942.44
2023-02-04T21:38:10.373Z,101935.31
2023-02-04T21:41:25.353Z,101945.06
2023-02-04T21:44:27.289Z,101928.72
2023-02-04T21:48:36.257Z,101931.28
2023-02-04T21:51:44.812Z,101940.16
2023-02-04T21:54:53.373Z,101801.75
2023-02-04T21:58:08.376Z,101950.53
2023-02-04T22:01:17.000Z,101926.94
2023-02-04T22:04:25.393Z,101941.63
2023-02-04T22:07:37.796Z,101946.78
2023-02-04T22:10:53.409Z,101945.75
2023-02-04T22:14:01.579Z,101954.34
2023-02-04T22:17:16.344Z,101948.97
2023-02-04T22:20:25.488Z,101954.97
2023-02-04T22:23:33.913Z,101949.25
2023-02-04T22:26:42.332Z,101945.53
2023-02-04T22:29:50.957Z,101949.88
2023-02-04T22:32:59.337Z,101964.81
2023-02-04T22:36:08.026Z,101966.31
2023-02-04T22:39:16.376Z,101969.88
2023-02-04T22:42:31.381Z,101958.47
2023-02-04T22:45:33.257Z,101970.78
2023-02-04T22:48:48.362Z,101963.69
2023-02-04T22:51:50.197Z,101961.16
2023-02-04T22:55:04.374Z,101961.22
2023-02-04T22:58:12.389Z,101957.38
2023-02-04T23:01:21.367Z,101968.22
2023-02-04T23:04:30.391Z,101967.25
2023-02-04T23:07:38.869Z,101982.53
2023-02-04T23:10:47.403Z,101956.59
2023-02-04T23:14:02.580Z,101980.69
2023-02-04T23:17:19.401Z,101988.50
2023-02-04T23:20:34.402Z,101976.25
2023-02-04T23:23:43.045Z,101965.53
2023-02-04T23:26:57.369Z,101986.44
2023-02-04T23:29:59.061Z,101981.97
2023-02-04T23:33:13.349Z,101961.59
2023-02-04T23:36:21.363Z,101991.53
2023-02-04T23:39:30.650Z,101991.31
2023-02-04T23:42:42.429Z,101996.44
2023-02-04T23:45:50.912Z,101972.47
2023-02-04T23:48:59.377Z,101991.97
2023-02-04T23:52:08.017Z,101994.59
2023-02-04T23:55:17.804Z,101993.28
2023-02-04T23:58:33.485Z,102007.38
